Time;durP1;ratioP1;P1;durP2;ratioP2;P2;SDS_P1;SDS_P2;PMS_P1;PMS_P2;Temp;Humidity;BMP_temperature;BMP_pressure;BME280_temperature;BME280_humidity;BME280_pressure;Samples;Min_cycle;Max_cycle;Signal;HPM_P1;HPM_P2
2023/10/30 00:00:54;;;;;;;9.45;1.58;;;;;;;8.98;100.00;99647.88;5090130;28;20048;-50
2023/10/30 00:03:22;;;;;;;9.63;2.05;;;;;;;9.02;100.00;99644.06;5091335;28;20094;-46
2023/10/30 00:05:51;;;;;;;8.57;1.65;;;;;;;9.03;100.00;99645.72;5091568;28;20563;-47
2023/10/30 00:08:19;;;;;;;11.25;2.20;;;;;;;8.99;100.00;99644.31;5092098;28;20490;-50
2023/10/30 00:10:48;;;;;;;8.52;1.80;;;;;;;8.99;100.00;99641.69;5095665;28;20055;-46
2023/10/30 00:13:16;;;;;;;9.27;2.15;;;;;;;8.95;100.00;99636.66;5095460;28;20068;-48
2023/10/30 00:15:44;;;;;;;6.72;1.48;;;;;;;8.98;100.00;99642.63;5095733;28;20482;-47
2023/10/30 00:18:14;;;;;;;10.82;1.88;;;;;;;8.96;100.00;99642.75;5095312;28;20044;-48
2023/10/30 00:20:42;;;;;;;11.25;1.65;;;;;;;8.99;100.00;99646.94;5095477;28;20052;-46
2023/10/30 00:23:10;;;;;;;9.52;1.85;;;;;;;8.94;100.00;99663.00;5095127;28;20040;-45
2023/10/30 00:25:39;;;;;;;8.68;1.80;;;;;;;9.03;100.00;99661.47;5094026;28;20052;-46
2023/10/30 00:28:07;;;;;;;13.57;2.25;;;;;;;8.99;100.00;99665.28;5093911;28;20586;-46
2023/10/30 00:30:35;;;;;;;10.80;1.92;;;;;;;8.96;100.00;99663.72;5095270;28;20051;-49
2023/10/30 00:33:03;;;;;;;12.18;1.77;;;;;;;9.00;100.00;99667.78;5095116;28;20055;-46
2023/10/30 00:35:33;;;;;;;16.10;1.98;;;;;;;8.98;100.00;99674.91;5095161;28;20055;-47
2023/10/30 00:38:01;;;;;;;11.13;1.95;;;;;;;8.98;100.00;99682.78;5095135;28;20059;-47
2023/10/30 00:40:29;;;;;;;12.70;2.30;;;;;;;9.16;100.00;99672.66;5095221;28;20130;-46
2023/10/30 00:42:57;;;;;;;13.68;2.65;;;;;;;9.24;100.00;99686.03;5094908;28;20059;-46
2023/10/30 00:45:25;;;;;;;11.02;2.00;;;;;;;9.26;100.00;99681.50;5093657;28;20052;-46
2023/10/30 00:47:54;;;;;;;11.85;1.83;;;;;;;9.29;100.00;99685.66;5093609;28;20055;-48
2023/10/30 00:50:22;;;;;;;12.50;1.88;;;;;;;9.26;100.00;99681.50;5094823;28;20052;-48
2023/10/30 00:52:52;;;;;;;8.35;1.55;;;;;;;9.34;100.00;99686.16;5094674;28;20044;-46
2023/10/30 00:55:20;;;;;;;13.02;1.90;;;;;;;9.32;100.00;99676.72;5094681;28;20102;-46
2023/10/30 00:57:49;;;;;;;7.35;2.03;;;;;;;9.28;100.00;99684.84;5094515;28;20499;-46
2023/10/30 01:00:18;;;;;;;13.98;2.22;;;;;;;9.28;100.00;99695.34;5089917;28;20059;-46
2023/10/30 01:02:46;;;;;;;14.07;1.73;;;;;;;9.24;100.00;99698.31;5092958;28;20048;-46
2023/10/30 01:05:15;;;;;;;10.32;2.03;;;;;;;9.23;100.00;99697.47;5094762;28;20473;-46
2023/10/30 01:07:44;;;;;;;9.70;2.00;;;;;;;9.23;100.00;99710.59;5094440;28;20044;-56
2023/10/30 01:10:13;;;;;;;12.02;1.83;;;;;;;9.29;100.00;99715.34;5094901;28;20055;-55
2023/10/30 01:12:44;;;;;;;9.60;1.83;;;;;;;9.24;100.00;99720.16;5094688;28;20119;-55
2023/10/30 01:15:17;;;;;;;10.80;2.38;;;;;;;9.27;100.00;99719.03;5094521;28;20048;-55
2023/10/30 01:17:45;;;;;;;12.35;2.10;;;;;;;9.28;100.00;99732.06;5094346;28;20054;-56
2023/10/30 01:20:13;;;;;;;17.90;2.10;;;;;;;9.25;100.00;99731.47;5093640;28;20052;-53
2023/10/30 01:22:42;;;;;;;8.20;1.98;;;;;;;9.23;100.00;99726.34;5094250;28;20044;-55
2023/10/30 01:25:10;;;;;;;13.55;2.35;;;;;;;9.33;100.00;99731.69;5094209;28;20139;-55
2023/10/30 01:27:39;;;;;;;11.80;2.28;;;;;;;9.37;100.00;99732.31;5094403;28;20048;-54
2023/10/30 01:30:08;;;;;;;13.57;2.17;;;;;;;9.37;100.00;99737.56;5094057;28;20072;-54
2023/10/30 01:32:37;;;;;;;11.55;2.38;;;;;;;9.45;100.00;99722.88;5094140;28;20035;-55
2023/10/30 01:35:05;;;;;;;10.38;1.63;;;;;;;9.42;100.00;99738.00;5094237;28;20593;-55
2023/10/30 01:37:33;;;;;;;15.25;2.78;;;;;;;9.39;100.00;99741.72;5094212;28;20502;-55
2023/10/30 01:40:02;;;;;;;10.32;1.60;;;;;;;9.39;100.00;99740.88;5093802;28;20101;-54
2023/10/30 01:42:30;;;;;;;12.98;2.35;;;;;;;9.40;100.00;99745.19;5093894;28;20077;-55
2023/10/30 01:45:00;;;;;;;10.70;2.53;;;;;;;9.37;100.00;99748.88;5093881;28;20074;-54
2023/10/30 01:47:28;;;;;;;11.95;2.05;;;;;;;9.46;100.00;99744.69;5091598;28;20044;-54
2023/10/30 01:50:02;;;;;;;10.25;1.95;;;;;;;9.46;100.00;99745.53;5090932;28;20514;-55
2023/10/30 01:52:32;;;;;;;12.05;1.75;;;;;;;9.51;100.00;99737.31;5093795;28;20131;-55
2023/10/30 01:55:00;;;;;;;13.32;1.77;;;;;;;9.56;100.00;99744.84;5093882;28;20672;-54
2023/10/30 01:57:29;;;;;;;10.15;2.65;;;;;;;9.57;100.00;99743.84;5093906;28;20052;-55
2023/10/30 02:00:00;;;;;;;10.20;1.90;;;;;;;9.54;100.00;99734.44;5093603;28;20036;-55
2023/10/30 02:02:30;;;;;;;14.20;2.03;;;;;;;9.61;100.00;99732.16;5093679;28;20127;-55
2023/10/30 02:04:59;;;;;;;12.35;2.22;;;;;;;9.60;100.00;99735.75;5093389;28;20047;-54
2023/10/30 02:07:27;;;;;;;11.18;1.70;;;;;;;9.60;100.00;99738.38;5093578;28;20040;-55
2023/10/30 02:09:55;;;;;;;10.68;1.65;;;;;;;9.67;100.00;99733.47;5093453;28;20051;-55
2023/10/30 02:12:26;;;;;;;11.40;1.95;;;;;;;9.77;100.00;99729.16;5093589;28;20429;-55
2023/10/30 02:14:55;;;;;;;9.75;1.73;;;;;;;9.68;100.00;99733.38;5093154;28;20040;-52
2023/10/30 02:17:27;;;;;;;9.57;1.83;;;;;;;9.67;100.00;99746.59;5093271;28;20032;-54
2023/10/30 02:19:56;;;;;;;9.63;1.92;;;;;;;9.64;100.00;99751.13;5093127;28;20059;-55
2023/10/30 02:22:24;;;;;;;11.85;1.88;;;;;;;9.62;100.00;99747.78;5091898;28;20048;-55
2023/10/30 02:24:52;;;;;;;14.23;2.08;;;;;;;9.64;100.00;99737.19;5093131;28;20051;-55
2023/10/30 02:27:21;;;;;;;12.23;2.03;;;;;;;9.62;100.00;99741.72;5093068;28;20054;-54
2023/10/30 02:29:49;;;;;;;9.60;1.90;;;;;;;9.62;100.00;99741.72;5091923;28;20131;-55
2023/10/30 02:32:18;;;;;;;11.80;1.92;;;;;;;9.73;100.00;99733.81;5092357;28;20052;-54
2023/10/30 02:34:46;;;;;;;11.32;1.80;;;;;;;9.79;100.00;99745.66;5091653;28;20048;-54
2023/10/30 02:37:14;;;;;;;9.25;1.77;;;;;;;9.75;100.00;99746.84;5092978;28;20414;-55
2023/10/30 02:39:42;;;;;;;11.73;1.70;;;;;;;9.72;100.00;99753.16;5092609;28;20490;-55
2023/10/30 02:42:10;;;;;;;7.55;1.60;;;;;;;9.65;100.00;99746.72;5092602;28;20058;-55
2023/10/30 02:44:40;;;;;;;11.82;1.80;;;;;;;9.64;100.00;99740.63;5092878;28;20048;-54
2023/10/30 02:47:08;;;;;;;11.32;2.45;;;;;;;9.66;100.00;99743.13;5092569;28;20047;-55
2023/10/30 02:49:36;;;;;;;11.15;1.80;;;;;;;9.69;100.00;99744.69;5092539;28;20040;-55
2023/10/30 02:52:05;;;;;;;6.65;1.40;;;;;;;9.65;100.00;99749.34;5092626;28;20089;-54
2023/10/30 02:54:33;;;;;;;10.95;2.30;;;;;;;9.59;100.00;99748.03;5092548;28;20044;-54
2023/10/30 02:57:01;;;;;;;7.80;1.40;;;;;;;9.58;100.00;99762.09;5092547;28;20110;-55
2023/10/30 02:59:30;;;;;;;8.57;1.92;;;;;;;9.61;100.00;99758.41;5091048;28;20048;-55
2023/10/30 03:01:59;;;;;;;13.88;2.40;;;;;;;9.64;100.00;99745.06;5092594;28;20359;-54
2023/10/30 03:04:28;;;;;;;8.63;1.60;;;;;;;9.63;100.00;99749.47;5092362;28;20503;-49
2023/10/30 03:06:58;;;;;;;11.20;2.20;;;;;;;9.61;100.00;99745.28;5092367;28;20063;-46
2023/10/30 03:09:26;;;;;;;7.82;1.63;;;;;;;9.68;100.00;99748.25;5092472;28;20048;-46
2023/10/30 03:11:55;;;;;;;10.10;2.30;;;;;;;9.64;100.00;99748.50;5092239;28;20470;-47
2023/10/30 03:14:23;;;;;;;10.65;1.73;;;;;;;9.64;100.00;99747.69;5092139;28;20448;-48
2023/10/30 03:16:53;;;;;;;9.50;1.95;;;;;;;9.62;100.00;99753.03;5092209;28;20113;-48
2023/10/30 03:19:26;;;;;;;13.07;1.95;;;;;;;9.57;100.00;99746.47;5092127;28;20036;-49
2023/10/30 03:21:54;;;;;;;10.13;2.15;;;;;;;9.57;100.00;99754.34;5092159;28;20123;-51
2023/10/30 03:24:25;;;;;;;9.95;1.50;;;;;;;9.54;100.00;99758.06;5092017;28;20052;-49
2023/10/30 03:26:53;;;;;;;9.38;1.85;;;;;;;9.58;100.00;99762.09;5092263;28;20514;-46
2023/10/30 03:29:24;;;;;;;9.60;1.70;;;;;;;9.54;100.00;99767.72;5092004;28;20109;-46
2023/10/30 03:31:54;;;;;;;8.32;1.90;;;;;;;9.51;100.00;99768.78;5091933;28;20071;-48
2023/10/30 03:34:23;;;;;;;9.77;2.17;;;;;;;9.52;100.00;99773.09;5091836;28;20368;-48
2023/10/30 03:36:52;;;;;;;8.32;1.65;;;;;;;9.52;100.00;99778.34;5092000;28;20149;-47
2023/10/30 03:39:20;;;;;;;13.20;2.15;;;;;;;9.48;100.00;99771.66;5091973;28;20056;-45
2023/10/30 03:41:51;;;;;;;13.18;1.85;;;;;;;9.43;100.00;99779.88;5091649;28;20063;-47
2023/10/30 03:44:23;;;;;;;11.63;1.77;;;;;;;9.40;100.00;99779.31;5096160;28;20040;-55
2023/10/30 03:46:51;;;;;;;8.35;2.53;;;;;;;9.38;100.00;99783.81;5096278;28;20522;-55
2023/10/30 03:49:22;;;;;;;11.82;1.80;;;;;;;9.37;100.00;99784.78;5096325;28;20376;-53
2023/10/30 03:51:50;;;;;;;9.80;1.55;;;;;;;9.31;100.00;99788.69;5094777;28;20506;-55
2023/10/30 03:54:22;;;;;;;7.88;1.77;;;;;;;9.32;100.00;99786.94;5094786;28;20060;-55
2023/10/30 03:56:51;;;;;;;12.13;2.22;;;;;;;9.29;100.00;99780.94;5096209;28;20113;-54
2023/10/30 03:59:20;;;;;;;6.45;1.63;;;;;;;9.30;100.00;99780.00;5095069;28;20105;-56
2023/10/30 04:01:48;;;;;;;10.30;2.10;;;;;;;9.25;100.00;99784.75;5093148;28;20070;-56
2023/10/30 04:04:16;;;;;;;8.40;1.48;;;;;;;9.26;100.00;99778.56;5094003;28;20051;-55
2023/10/30 04:06:47;;;;;;;10.50;2.15;;;;;;;9.22;100.00;99773.69;5096019;28;20040;-53
2023/10/30 04:09:15;;;;;;;10.85;1.80;;;;;;;9.18;100.00;99775.69;5094203;28;20055;-54
2023/10/30 04:11:47;;;;;;;10.95;2.05;;;;;;;9.16;100.00;99771.50;5095918;28;20447;-53
2023/10/30 04:14:15;;;;;;;11.32;1.90;;;;;;;9.14;100.00;99787.38;5094824;28;20059;-54
2023/10/30 04:16:44;;;;;;;7.65;2.08;;;;;;;9.12;100.00;99786.63;5093053;28;20724;-53
2023/10/30 04:19:12;;;;;;;8.60;1.67;;;;;;;9.06;100.00;99779.25;5094513;28;20383;-55
2023/10/30 04:21:40;;;;;;;9.50;1.77;;;;;;;9.07;100.00;99788.78;5094017;28;20414;-53
2023/10/30 04:24:09;;;;;;;9.00;1.77;;;;;;;9.01;100.00;99781.38;5091053;28;20123;-54
2023/10/30 04:26:40;;;;;;;8.75;1.92;;;;;;;8.93;100.00;99774.06;5093484;28;20122;-54
2023/10/30 04:29:12;;;;;;;10.25;1.83;;;;;;;8.86;100.00;99775.50;5094112;28;20127;-55
2023/10/30 04:31:40;;;;;;;11.40;1.77;;;;;;;8.82;100.00;99769.66;5095670;28;20047;-55
2023/10/30 04:34:08;;;;;;;9.43;1.52;;;;;;;8.74;100.00;99772.00;5095315;28;20041;-56
2023/10/30 04:36:36;;;;;;;7.97;1.48;;;;;;;8.67;100.00;99774.25;5095343;28;20491;-53
2023/10/30 04:39:08;;;;;;;7.68;1.55;;;;;;;8.60;100.00;99771.25;5095246;28;20052;-55
2023/10/30 04:41:36;;;;;;;8.15;2.22;;;;;;;8.55;100.00;99773.38;5094827;28;20056;-54
2023/10/30 04:44:05;;;;;;;8.13;1.83;;;;;;;8.49;100.00;99779.06;5093491;28;20560;-54
2023/10/30 04:46:34;;;;;;;6.28;1.40;;;;;;;8.44;100.00;99770.69;5092417;28;20055;-52
2023/10/30 04:49:05;;;;;;;10.90;1.60;;;;;;;8.40;100.00;99769.25;5095181;28;20040;-54
2023/10/30 04:51:35;;;;;;;7.32;1.38;;;;;;;8.42;100.00;99773.41;5094982;28;20040;-53
2023/10/30 04:54:03;;;;;;;10.80;1.95;;;;;;;8.39;100.00;99770.19;5094226;28;20044;-54
2023/10/30 04:56:31;;;;;;;9.65;1.60;;;;;;;8.35;100.00;99776.59;5093559;28;20056;-53
2023/10/30 04:59:00;;;;;;;8.95;1.60;;;;;;;8.28;100.00;99774.41;5094793;28;20048;-54
2023/10/30 05:01:28;;;;;;;9.20;1.70;;;;;;;8.25;100.00;99772.00;5094714;28;20110;-53
2023/10/30 05:03:58;;;;;;;7.53;1.80;;;;;;;8.25;100.00;99786.91;5094923;28;20060;-55
2023/10/30 05:06:26;;;;;;;7.22;1.73;;;;;;;8.22;100.00;99780.09;5094806;28;20056;-54
2023/10/30 05:08:54;;;;;;;9.63;1.48;;;;;;;8.22;100.00;99782.72;5094655;28;20469;-54
2023/10/30 05:11:22;;;;;;;9.68;1.60;;;;;;;8.19;100.00;99775.06;5094622;28;20054;-54
2023/10/30 05:13:50;;;;;;;8.00;1.70;;;;;;;8.17;100.00;99773.53;5093181;28;20105;-51
2023/10/30 05:16:21;;;;;;;10.30;1.80;;;;;;;8.19;100.00;99775.06;5094532;28;20387;-47
2023/10/30 05:18:49;;;;;;;11.82;1.90;;;;;;;8.19;100.00;99772.44;5094191;28;20517;-46
2023/10/30 05:21:19;;;;;;;9.15;2.35;;;;;;;8.21;100.00;99775.81;5094280;28;20040;-45
2023/10/30 05:23:48;;;;;;;9.40;1.80;;;;;;;8.16;100.00;99770.06;5094498;28;20040;-47
2023/10/30 05:26:16;;;;;;;11.45;2.40;;;;;;;8.17;100.00;99769.13;5094375;28;20105;-47
2023/10/30 05:28:44;;;;;;;13.85;2.40;;;;;;;8.19;100.00;99767.22;5094361;28;20440;-47
2023/10/30 05:31:13;;;;;;;13.77;1.98;;;;;;;8.17;100.00;99763.88;5094129;28;20127;-48
2023/10/30 05:33:41;;;;;;;10.52;2.00;;;;;;;8.21;100.00;99762.72;5094089;28;20058;-48
2023/10/30 05:36:10;;;;;;;14.40;2.33;;;;;;;8.20;100.00;99774.13;5094082;28;20498;-49
2023/10/30 05:38:39;;;;;;;14.45;2.05;;;;;;;8.22;100.00;99767.00;5093999;28;20052;-50
2023/10/30 05:41:08;;;;;;;15.05;2.42;;;;;;;8.25;100.00;99772.00;5093690;28;20454;-46
2023/10/30 05:43:36;;;;;;;8.85;1.92;;;;;;;8.26;100.00;99765.84;5094001;28;20040;-46
2023/10/30 05:46:04;;;;;;;13.68;2.05;;;;;;;8.24;100.00;99764.28;5093719;28;20040;-46
2023/10/30 05:48:33;;;;;;;11.68;1.88;;;;;;;8.23;100.00;99765.22;5093937;28;20046;-46
2023/10/30 05:51:01;;;;;;;8.70;1.95;;;;;;;8.22;100.00;99767.00;5093680;28;20168;-45
2023/10/30 05:53:29;;;;;;;12.88;1.75;;;;;;;8.21;100.00;99761.88;5092446;28;20048;-46
2023/10/30 05:55:59;;;;;;;10.60;1.58;;;;;;;8.18;100.00;99757.69;5093933;28;20055;-49
2023/10/30 05:58:28;;;;;;;10.45;1.67;;;;;;;8.22;100.00;99763.53;5092341;28;20040;-47
2023/10/30 06:00:56;;;;;;;8.45;1.70;;;;;;;8.25;100.00;99771.19;5091020;28;20127;-47
2023/10/30 06:03:25;;;;;;;9.90;2.20;;;;;;;8.25;100.00;99758.91;5092460;28;20047;-46
2023/10/30 06:05:53;;;;;;;14.20;2.05;;;;;;;8.29;100.00;99768.22;5092362;28;20138;-47
2023/10/30 06:08:23;;;;;;;14.80;3.50;;;;;;;8.23;100.00;99779.13;5093713;28;20036;-47
2023/10/30 06:10:52;;;;;;;11.27;4.18;;;;;;;8.20;100.00;99779.38;5093421;28;20063;-48
2023/10/30 06:13:21;;;;;;;12.00;4.25;;;;;;;8.14;100.00;99790.28;5093387;28;20115;-47
2023/10/30 06:15:49;;;;;;;10.82;4.05;;;;;;;8.08;100.00;99795.97;5093321;28;20048;-47
2023/10/30 06:18:18;;;;;;;12.77;3.60;;;;;;;8.01;100.00;99800.78;5093252;28;20079;-46
2023/10/30 06:20:46;;;;;;;10.10;2.97;;;;;;;7.93;100.00;99797.88;5093118;28;20043;-45
2023/10/30 06:23:14;;;;;;;14.15;2.60;;;;;;;7.91;100.00;99803.22;5092906;28;20414;-48
2023/10/30 06:25:44;;;;;;;8.50;2.20;;;;;;;7.85;100.00;99797.59;5093084;28;20138;-47
2023/10/30 06:28:15;;;;;;;8.18;1.88;;;;;;;7.81;100.00;99799.56;5093068;28;20052;-46
2023/10/30 06:30:44;;;;;;;12.65;3.53;;;;;;;7.79;100.00;99806.72;5091723;28;20047;-47
2023/10/30 06:33:12;;;;;;;12.20;3.00;;;;;;;7.79;100.00;99798.84;5091586;28;20515;-54
2023/10/30 06:35:40;;;;;;;8.73;2.40;;;;;;;7.76;100.00;99805.13;5093055;28;20055;-53
2023/10/30 06:38:11;;;;;;;12.38;2.78;;;;;;;7.74;100.00;99803.56;5091959;28;20051;-55
2023/10/30 06:40:39;;;;;;;9.93;2.40;;;;;;;7.74;100.00;99809.66;5088548;28;20491;-55
2023/10/30 06:43:07;;;;;;;12.48;2.45;;;;;;;7.71;100.00;99809.03;5090106;28;20070;-55
2023/10/30 06:45:35;;;;;;;11.38;2.40;;;;;;;7.72;100.00;99811.53;5092200;28;20052;-56
2023/10/30 06:48:05;;;;;;;11.07;2.13;;;;;;;7.72;100.00;99808.91;5092584;28;20093;-54
2023/10/30 06:50:34;;;;;;;7.68;1.70;;;;;;;7.70;100.00;99808.19;5092415;28;20075;-53
2023/10/30 06:53:04;;;;;;;6.57;1.75;;;;;;;7.69;100.00;99818.75;5091402;28;20075;-54
2023/10/30 06:55:35;;;;;;;9.00;1.92;;;;;;;7.78;100.00;99823.34;5088250;28;20059;-54
2023/10/30 06:58:03;;;;;;;10.80;1.88;;;;;;;7.75;100.00;99826.19;5092440;28;20075;-54
2023/10/30 07:00:31;;;;;;;14.27;2.00;;;;;;;7.73;100.00;99826.31;5092447;28;20101;-55
2023/10/30 07:03:00;;;;;;;10.82;2.08;;;;;;;7.81;100.00;99840.63;5092307;28;20051;-55
2023/10/30 07:05:29;;;;;;;8.88;2.05;;;;;;;7.81;100.00;99836.22;5092790;28;20060;-53
2023/10/30 07:07:58;;;;;;;11.23;2.33;;;;;;;7.92;100.00;99838.94;5092419;28;20083;-55
2023/10/30 07:10:26;;;;;;;13.50;2.38;;;;;;;7.97;100.00;99841.22;5092318;28;20513;-53
2023/10/30 07:12:56;;;;;;;12.75;2.72;;;;;;;8.06;100.00;99840.59;5089639;28;20580;-53
2023/10/30 07:15:26;;;;;;;15.63;2.53;;;;;;;8.22;100.00;99842.97;5089264;28;20102;-55
2023/10/30 07:17:55;;;;;;;17.02;2.63;;;;;;;8.36;100.00;99838.53;5090566;28;20047;-54
2023/10/30 07:20:24;;;;;;;11.38;2.40;;;;;;;8.44;100.00;99849.28;5092435;28;20047;-54
2023/10/30 07:22:53;;;;;;;14.30;3.00;;;;;;;8.57;100.00;99851.88;5092271;28;20048;-53
2023/10/30 07:25:21;;;;;;;11.68;2.70;;;;;;;8.73;100.00;99854.22;5092241;28;20040;-54
2023/10/30 07:27:49;;;;;;;10.23;2.60;;;;;;;8.86;100.00;99849.78;5090864;28;20051;-55
2023/10/30 07:30:35;;;;;;;11.85;2.60;;;;;;;9.00;100.00;99858.38;5092416;28;20411;-54
2023/10/30 07:33:04;;;;;;;9.40;2.17;;;;;;;9.21;100.00;99869.06;5092235;28;20052;-54
2023/10/30 07:35:36;;;;;;;17.70;3.13;;;;;;;9.32;100.00;99855.97;5090931;28;20052;-54
2023/10/30 07:38:05;;;;;;;11.50;2.20;;;;;;;9.46;100.00;99844.41;5091842;28;20499;-55
2023/10/30 07:40:33;;;;;;;12.70;2.75;;;;;;;9.54;100.00;99842.03;5088086;28;20075;-55
2023/10/30 07:43:03;;;;;;;11.00;2.63;;;;;;;9.72;100.00;99852.94;5090790;28;20525;-54
2023/10/30 07:45:31;;;;;;;8.77;2.13;;;;;;;9.90;100.00;99863.81;5092236;28;20483;-54
2023/10/30 07:47:59;;;;;;;12.27;2.25;;;;;;;10.21;100.00;99885.06;5092070;28;20498;-54
2023/10/30 07:50:27;;;;;;;13.80;3.00;;;;;;;10.40;100.00;99873.09;5091933;28;20109;-53
2023/10/30 07:52:56;;;;;;;13.40;2.60;;;;;;;10.38;100.00;99872.41;5091920;28;20046;-54
2023/10/30 07:55:25;;;;;;;12.52;2.17;;;;;;;10.38;100.00;99875.03;5091870;28;20418;-55
2023/10/30 07:57:53;;;;;;;12.27;2.38;;;;;;;10.43;100.00;99880.72;5091967;28;20048;-53
2023/10/30 08:00:22;;;;;;;11.77;2.33;;;;;;;10.51;100.00;99880.94;5090449;28;20058;-54
2023/10/30 08:02:52;;;;;;;14.15;2.22;;;;;;;10.63;100.00;99879.13;5091663;28;20506;-55
2023/10/30 08:05:22;;;;;;;12.68;1.90;;;;;;;10.57;100.00;99884.91;5091989;28;20134;-55
2023/10/30 08:07:51;;;;;;;9.93;2.20;;;;;;;10.67;100.00;99885.00;5092053;28;20074;-55
2023/10/30 08:10:19;;;;;;;8.43;2.20;;;;;;;10.70;100.00;99884.72;5091445;28;20044;-55
2023/10/30 08:12:49;;;;;;;11.65;2.28;;;;;;;10.81;100.00;99887.31;5091792;28;20050;-54
2023/10/30 08:15:17;;;;;;;13.25;2.30;;;;;;;10.94;100.00;99888.00;5090509;28;20052;-54
2023/10/30 08:17:45;;;;;;;10.43;2.13;;;;;;;10.97;100.00;99887.75;5091705;28;20090;-53
2023/10/30 08:20:14;;;;;;;10.25;2.20;;;;;;;11.13;100.00;99897.03;5091578;28;20075;-53
2023/10/30 08:22:44;;;;;;;14.98;2.85;;;;;;;11.11;100.00;99901.56;5091803;28;20059;-54
2023/10/30 08:25:12;;;;;;;15.75;2.80;;;;;;;11.15;100.00;99885.41;5091660;28;20473;-54
2023/10/30 08:27:40;;;;;;;12.05;2.58;;;;;;;11.24;100.00;99894.31;5091513;28;20044;-54
2023/10/30 08:30:11;;;;;;;10.02;2.08;;;;;;;11.51;100.00;99893.00;5092296;28;20055;-55
2023/10/30 08:32:41;;;;;;;10.05;1.92;;;;;;;11.47;100.00;99896.84;5094084;28;20063;-47
2023/10/30 08:35:09;;;;;;;11.90;2.63;;;;;;;11.56;100.00;99882.91;5090137;28;20060;-50
2023/10/30 08:37:37;;;;;;;13.77;2.53;;;;;;;11.79;100.00;99877.47;5093938;28;20044;-50
2023/10/30 08:40:08;;;;;;;10.88;2.13;;;;;;;12.08;100.00;99875.00;5094935;28;20060;-48
2023/10/30 08:42:36;;;;;;;13.23;2.13;;;;;;;12.24;100.00;99873.66;5095105;28;20399;-47
2023/10/30 08:45:08;;;;;;;10.07;2.20;;;;;;;12.27;100.00;99863.69;5094963;28;20063;-47
2023/10/30 08:47:38;;;;;;;8.05;1.85;;;;;;;12.32;100.00;99863.28;5094995;28;20047;-48
2023/10/30 08:50:08;;;;;;;12.55;2.05;;;;;;;12.33;100.00;99860.50;5092481;28;20044;-47
2023/10/30 08:52:37;;;;;;;7.78;1.77;;;;;;;12.30;100.00;99876.59;5090210;28;20044;-46
2023/10/30 08:55:06;;;;;;;9.25;1.98;;;;;;;12.29;100.00;99889.91;5094951;28;20044;-48
2023/10/30 08:57:34;;;;;;;10.93;2.10;;;;;;;12.30;100.00;99894.22;5095212;28;20052;-46
2023/10/30 09:00:06;;;;;;;9.20;1.90;;;;;;;12.22;100.00;99892.25;5095139;28;20483;-46
2023/10/30 09:02:34;;;;;;;8.73;2.22;;;;;;;12.19;100.00;99887.25;5094879;28;20063;-50
2023/10/30 09:05:05;;;;;;;8.75;2.17;;;;;;;12.22;100.00;99892.25;5094597;28;20040;-45
2023/10/30 09:07:34;;;;;;;7.75;2.30;;;;;;;12.19;100.00;99884.63;5095030;28;20518;-46
2023/10/30 09:10:03;;;;;;;11.10;2.00;;;;;;;12.20;100.00;99890.72;5094450;28;20044;-45
2023/10/30 09:12:31;;;;;;;10.93;2.47;;;;;;;12.12;100.00;99894.00;5094640;28;20048;-45
2023/10/30 09:14:59;;;;;;;9.00;2.13;;;;;;;12.09;100.00;99889.00;5094666;28;20101;-46
2023/10/30 09:17:27;;;;;;;18.08;3.45;;;;;;;12.13;100.00;99891.25;5094464;28;20047;-46
2023/10/30 09:19:55;;;;;;;11.30;3.33;;;;;;;12.18;100.00;99878.50;5091108;28;20135;-45
2023/10/30 09:22:25;;;;;;;12.77;3.03;;;;;;;12.26;100.00;99888.38;5091192;28;20050;-45
2023/10/30 09:24:53;;;;;;;10.52;3.08;;;;;;;12.28;100.00;99880.31;5094135;28;20403;-48
2023/10/30 09:27:23;;;;;;;13.82;3.85;;;;;;;12.37;100.00;99876.06;5092932;28;20056;-45
2023/10/30 09:29:51;;;;;;;11.52;2.53;;;;;;;12.37;100.00;99876.06;5094235;28;20051;-48
2023/10/30 09:32:19;;;;;;;12.98;3.58;;;;;;;12.39;100.00;99889.94;5094185;28;20559;-45
2023/10/30 09:34:47;;;;;;;11.70;3.08;;;;;;;12.44;100.00;99893.00;5094054;28;20149;-47
2023/10/30 09:37:16;;;;;;;16.05;2.85;;;;;;;12.59;100.00;99901.38;5094235;28;20044;-47
2023/10/30 09:39:47;;;;;;;12.50;2.70;;;;;;;12.71;100.00;99905.56;5094300;28;20042;-45
2023/10/30 09:42:16;;;;;;;15.02;2.58;;;;;;;12.83;100.00;99898.34;5093970;28;20056;-54
2023/10/30 09:44:45;;;;;;;10.68;2.25;;;;;;;12.95;100.00;99899.88;5093894;28;20062;-55
2023/10/30 09:47:19;;;;;;;10.82;2.33;;;;;;;13.04;100.00;99900.03;5091055;28;20123;-55
2023/10/30 09:49:49;;;;;;;11.07;2.42;;;;;;;13.04;100.00;99903.50;5092223;28;20407;-54
2023/10/30 09:52:21;;;;;;;12.75;2.53;;;;;;;13.09;100.00;99895.13;5093901;28;20048;-47
2023/10/30 09:54:51;;;;;;;12.98;2.72;;;;;;;13.04;100.00;99890.28;5094012;28;20070;-47
2023/10/30 09:57:19;;;;;;;11.25;2.60;;;;;;;13.02;100.00;99877.25;5093630;28;20253;-46
2023/10/30 09:59:53;;;;;;;10.73;2.30;;;;;;;13.11;100.00;99885.28;5093520;28;20050;-49
2023/10/30 10:02:25;;;;;;;10.85;2.58;;;;;;;13.07;100.00;99884.72;5093470;28;20122;-47
2023/10/30 10:04:53;;;;;;;9.90;2.40;;;;;;;13.08;100.00;99869.75;5091173;28;20080;-48
2023/10/30 10:07:22;;;;;;;14.48;2.72;;;;;;;13.12;100.00;99876.41;5089498;28;20441;-49
2023/10/30 10:10:02;;;;;;;12.23;2.65;;;;;;;13.12;100.00;99874.59;5089419;28;20482;-49
2023/10/30 10:12:30;;;;;;;11.85;2.15;;;;;;;13.22;100.00;99879.84;5093886;28;20072;-45
2023/10/30 10:14:59;;;;;;;8.88;2.17;;;;;;;13.30;100.00;99881.81;5093694;28;20036;-45
2023/10/30 10:17:27;;;;;;;11.55;2.05;;;;;;;13.43;100.00;99884.16;5093350;28;20062;-45
2023/10/30 10:19:55;;;;;;;11.27;2.55;;;;;;;13.43;100.00;99881.53;5093105;28;20131;-46
2023/10/30 10:22:31;;;;;;;13.27;2.22;;;;;;;13.40;100.00;99876.53;5093030;28;20059;-46
2023/10/30 10:25:02;;;;;;;10.15;2.20;;;;;;;13.39;100.00;99875.72;5093165;28;20035;-49
2023/10/30 10:27:30;;;;;;;9.30;2.17;;;;;;;13.46;100.00;99883.91;5093246;28;20074;-47
2023/10/30 10:29:59;;;;;;;10.98;1.92;;;;;;;13.48;100.00;99876.66;5093234;28;20530;-46
2023/10/30 10:32:29;;;;;;;12.05;2.80;;;;;;;13.48;100.00;99871.38;5092913;28;20452;-47
2023/10/30 10:34:58;;;;;;;14.85;2.63;;;;;;;13.52;100.00;99867.47;5093012;28;20040;-49
2023/10/30 10:37:26;;;;;;;13.75;2.38;;;;;;;13.51;100.00;99864.00;5093010;28;20080;-49
2023/10/30 10:39:55;;;;;;;13.00;2.55;;;;;;;13.51;100.00;99863.16;5092848;28;20040;-53
2023/10/30 10:42:27;;;;;;;12.65;2.35;;;;;;;13.50;100.00;99857.06;5092869;28;20059;-52
2023/10/30 10:44:58;;;;;;;12.98;2.63;;;;;;;13.48;100.00;99855.53;5092871;28;20072;-53
2023/10/30 10:47:26;;;;;;;8.85;2.15;;;;;;;13.49;100.00;99846.63;5092677;28;20904;-54
2023/10/30 10:49:54;;;;;;;15.00;2.72;;;;;;;13.51;100.00;99856.09;5091187;28;20093;-54
2023/10/30 10:52:22;;;;;;;9.65;2.42;;;;;;;13.56;100.00;99860.09;5092261;28;20502;-53
2023/10/30 10:55:03;;;;;;;9.07;2.05;;;;;;;13.54;100.00;99860.25;5090569;28;20657;-54
2023/10/30 10:57:42;;;;;;;13.05;2.67;;;;;;;13.56;100.00;99858.28;5089633;28;20052;-54
2023/10/30 11:00:15;;;;;;;15.00;3.70;;;;;;;13.60;100.00;99843.81;5091403;28;20491;-56
2023/10/30 11:02:48;;;;;;;15.00;2.60;;;;;;;13.64;100.00;99847.00;5092641;28;20117;-54
2023/10/30 11:05:17;;;;;;;10.85;2.03;;;;;;;13.69;100.00;99836.84;5092612;28;20514;-54
2023/10/30 11:07:54;;;;;;;13.02;3.53;;;;;;;13.72;100.00;99836.56;5092709;28;20101;-54
2023/10/30 11:10:30;;;;;;;12.73;2.50;;;;;;;13.66;100.00;99837.97;5092399;28;20044;-53
2023/10/30 11:13:12;;;;;;;12.45;2.85;;;;;;;13.72;100.00;99836.56;5092432;28;20079;-54
2023/10/30 11:15:48;;;;;;;14.80;2.35;;;;;;;13.80;100.00;99838.47;5092599;28;20040;-53
2023/10/30 11:18:19;;;;;;;10.25;2.22;;;;;;;13.86;100.00;99829.94;5092298;28;20062;-56
2023/10/30 11:21:08;;;;;;;8.02;2.20;;;;;;;13.92;100.00;99823.25;5092628;28;20105;-52
2023/10/30 11:23:55;;;;;;;11.98;1.98;;;;;;;14.00;100.00;99816.25;5092475;28;20052;-53
2023/10/30 11:26:39;;;;;;;13.25;2.67;;;;;;;14.06;100.00;99813.97;5092470;28;20097;-54
2023/10/30 11:29:11;;;;;;;8.45;2.00;;;;;;;14.12;100.00;99802.84;5091959;28;20048;-54
2023/10/30 11:31:53;;;;;;;10.88;2.03;;;;;;;14.10;100.00;99807.44;5089170;28;20044;-54
2023/10/30 11:34:26;;;;;;;11.17;2.30;;;;;;;14.15;100.00;99805.19;5090452;28;20044;-54